NCAR-RAP Real-Time Weather Data

Output produced by METARs form (17 October 2018  15:43 UTC)
found at http://weather.rap.ucar.edu/surface/
 
KFZY 171523Z AUTO 29010KT 6SM -RA FEW018 BKN031 OVC038 08/04 A2986 RMK AO2 P0003 T00780044
KFZY 171454Z AUTO 30013G17KT 10SM -RA BKN023 BKN031 OVC060 08/04 A2986 RMK AO2 RAB02 SLP114 P0000 60000 T00830039 52007
KFZY 171410Z AUTO 28009KT 10SM -RA SCT024 BKN033 OVC041 09/04 A2985 RMK AO2 RAB02 P0000 T00890039
KFZY 171354Z AUTO 28009KT 10SM OVC026 09/03 A2984 RMK AO2 SLP108 T00940033
KFZY 171338Z AUTO 26008KT 10SM BKN028 OVC036 09/03 A2984 RMK AO2 T00940033
KFZY 171254Z AUTO 24008KT 10SM FEW039 BKN080 OVC100 09/03 A2984 RMK AO2 RAB36E46 SLP107 P0000 T00890028
KFZY 171154Z AUTO 21007KT 10SM FEW047 SCT065 08/02 A2984 RMK AO2 SLP105 60000 T00780017 10089 20078 56005
KFZY 171054Z AUTO 20007KT 10SM SCT046 BKN060 OVC095 09/02 A2984 RMK AO2 SLP106 T00890017
KFZY 170954Z AUTO 20007KT 10SM OVC060 09/02 A2984 RMK AO2 SLP105 T00890017
KFZY 170854Z AUTO 21007KT 10SM OVC060 09/02 A2985 RMK AO2 RAB28E37 SLP110 P0000 60000 T00890017 58016
KFZY 170754Z AUTO 20005KT 10SM BKN050 OVC070 08/02 A2987 RMK AO2 RAB27E52 SLP117 P0000 T00780017
KFZY 170654Z AUTO 21004KT 10SM FEW060 BKN080 OVC095 08/00 A2989 RMK AO2 SLP122 T00830000
KFZY 170554Z AUTO 21007KT 10SM OVC085 08/00 A2990 RMK AO2 SLP127 T00830000 10083 20050 58016
KFZY 170354Z AUTO 19007KT 10SM OVC047 08/02 A2993 RMK AO2 SLP139 T00780017
KFZY 170254Z AUTO 17008KT 10SM OVC050 07/02 A2995 RMK AO2 SLP143 T00720017 58008
KFZY 170154Z AUTO 17004KT 10SM BKN110 06/02 A2996 RMK AO2 SLP149 T00610022
KFZY 170054Z AUTO 19003KT 10SM CLR 07/02 A2996 RMK AO2 SLP149 T00720022
KFZY 162354Z AUTO 17004KT 10SM SCT050 07/02 A2997 RMK AO2 SLP153 T00720017 10111 20072 58006
KFZY 162254Z AUTO 19004KT 10SM SCT055 OVC100 08/02 A2998 RMK AO2 SLP154 T00830017
KFZY 162154Z AUTO 19007KT 10SM BKN060 09/01 A2998 RMK AO2 SLP155 T00940006
KFZY 162054Z AUTO 21008G15KT 10SM SCT055 11/00 A2999 RMK AO2 SLP158 T01110000 58025
KFZY 161954Z AUTO 23011KT 10SM SCT048 10/M01 A3002 RMK AO2 SLP168 T01001006
KFZY 161854Z AUTO 24009KT 10SM FEW047 09/M01 A3004 RMK AO2 SLP176 T00941011
KFZY 161754Z AUTO 26012G19KT 10SM SCT045 09/M02 A3007 RMK AO2 SLP183 T00891017 10106 20056 58024
KFZY 161654Z AUTO 25014G20KT 10SM BKN045 08/M02 A3010 RMK AO2 SLP194 T00831022
KFZY 161554Z AUTO 26012G22KT 10SM BKN047 09/M02 A3012 RMK AO2 SLP202 T00891022
KFZY 161454Z AUTO 25011KT 10SM OVC050 09/M01 A3014 RMK AO2 SLP208 T00891011 50000
KFZY 161354Z AUTO 25013KT 10SM OVC049 07/M02 A3014 RMK AO2 SLP209 T00721017
KFZY 161254Z AUTO 23009KT 10SM SCT028 BKN038 OVC046 06/M02 A3014 RMK AO2 SLP208 T00561017
KFZY 161251Z AUTO 23008KT 10SM BKN030 BKN038 OVC046 06/M02 A3014 RMK AO2
KFZY 161230Z AUTO 23009KT 10SM BKN029 OVC039 06/M02 A3013 RMK AO2 T00561017
KFZY 161154Z AUTO 24008KT 10SM FEW028 OVC047 06/M01 A3012 RMK AO2 RAB09E19 SLP202 P0000 60000 70005 T00561011 10078 20056 51009
KFZY 161054Z AUTO 25010KT 10SM FEW042 OVC050 06/M02 A3012 RMK AO2 SLP201 T00561017 $
KFZY 160954Z AUTO 24008KT 10SM SCT035 BKN043 OVC050 06/M02 A3011 RMK AO2 SLP197 T00561017 $
KFZY 160854Z AUTO 25009KT 10SM FEW036 SCT043 OVC049 06/M02 A3009 RMK AO2 SLP192 T00611022 53007 $
KFZY 160754Z AUTO 24010KT 10SM BKN047 OVC060 07/M02 A3008 RMK AO2 SLP186 T00671022 $
KFZY 160654Z AUTO 28015G24KT 10SM BKN047 BKN055 07/M02 A3007 RMK AO2 PK WND 29026/0606 SLP185 T00721022 $
KFZY 160554Z AUTO 29015G25KT 10SM SCT049 07/M03 A3007 RMK AO2 PK WND 29026/0503 SLP185 60000 T00721028 10122 20067 51020 $
KFZY 160454Z AUTO 29018G29KT 10SM BKN050 07/M03 A3006 RMK AO2 PK WND 28030/0413 SLP182 T00721028 401610061 $
KFZY 160354Z AUTO 29016G27KT 10SM BKN047 BKN060 08/M03 A3004 RMK AO2 PK WND 30039/0259 SLP175 T00781028 $
KFZY 160254Z AUTO 28022G36KT 10SM BKN048 OVC060 08/M02 A3002 RMK AO2 PK WND 29037/0239 SLP166 P0000 60000 T00831022 $
KFZY 160154Z AUTO 29026G35KT 10SM -RA BKN041 OVC060 10/02 A2996 RMK AO2 PK WND 29040/0138 RAB50 PRESRR SLP145 P0000 T01000017
KFZY 160054Z AUTO 28015G27KT 10SM SCT029 BKN035 OVC060 11/04 A2990 RMK AO2 PK WND 28028/0041 RAE21 SLP127 P0000 T01060044
KFZY 152354Z AUTO 27019G33KT 10SM -RA SCT025 SCT030 OVC042 12/07 A2986 RMK AO2 PK WND 26033/2349 RAB26E36B50 SLP113 P0000 60005 T01220067 10161 20122 53029
KFZY 152346Z AUTO 28011G24KT 10SM BKN026 BKN034 OVC043 13/07 A2986 RMK AO2 PK WND 27028/2258 RAB26E36 P0000 T01280072
KFZY 152254Z AUTO 27017G29KT 10SM FEW024 BKN039 OVC047 13/07 A2982 RMK AO2 PK WND 28029/2251 RAB28E38 SLP097 P0000 T01330067
KFZY 152154Z AUTO 25008G18KT 10SM FEW025 BKN034 OVC060 14/10 A2979 RMK AO2 SLP088 T01390100
KFZY 152054Z AUTO 28012G20KT 10SM FEW029 SCT040 OVC047 14/11 A2977 RMK AO2 PK WND 26026/2020 WSHFT 2001 RAB04E51 SLP083 P0004 60005 T01390111 51008
KFZY 152049Z AUTO 28012KT 10SM -RA FEW010 SCT038 OVC045 14/11 A2977 RMK AO2 PK WND 26026/2020 WSHFT 2001 RAB04 P0004
KFZY 152035Z AUTO 26016G23KT 3SM -RA FEW007 BKN027 OVC036 14/11 A2978 RMK AO2 PK WND 26026/2020 WSHFT 2001 RAB04 P0004 T01390111
KFZY 152015Z AUTO 29013KT 4SM -RA BR BKN011 BKN017 OVC050 14/12 A2977 RMK AO2 WSHFT 2001 RAB04 CIG 007V014 P0003 T01390117
KFZY 152008Z AUTO 29015G22KT 2 1/2SM RA SCT011 BKN027 OVC038 14/12 A2978 RMK AO2 RAB04 P0002 T01440117
KFZY 151954Z AUTO 20005KT 10SM FEW025 BKN036 OVC045 16/12 A2975 RMK AO2 RAB07E39 SLP076 P0001 T01560122
KFZY 151946Z AUTO 19005KT 10SM FEW025 BKN030 OVC038 16/12 A2975 RMK AO2 RAB07E39 P0001 T01560122
KFZY 151854Z AUTO 20006KT 10SM OVC029 16/12 A2975 RMK AO2 SLP075 T01610117
KFZY 151754Z AUTO 19009G20KT 10SM OVC030 16/11 A2978 RMK AO2 SLP084 60000 T01610111 10161 20083 55022
KFZY 151750Z AUTO 20012G20KT 10SM OVC030 16/11 A2978 RMK AO2
KFZY 151654Z AUTO 18009KT 10SM BKN026 OVC032 14/11 A2980 RMK AO2 SLP092 T01440106
KFZY 151554Z AUTO 13003KT 10SM FEW018 OVC034 12/09 A2984 RMK AO2 SLP106 T01220094
KFZY 151530Z AUTO VRB04KT 10SM SCT029 OVC036 12/09 A2985 RMK AO2 T01170089
KFZY 151454Z AUTO VRB04KT 9SM FEW018 OVC028 11/08 A2987 RMK AO2 SLP118 60000 T01060083 58021
KFZY 151354Z AUTO VRB04KT 5SM BR SCT005 OVC024 09/08 A2991 RMK AO2 RAE1257 SLP129 P0000 T00940078
KFZY 151345Z AUTO VRB05KT 3SM BR BKN005 OVC023 09/08 A2991 RMK AO2 RAE1257 CIG 003V010 P0000 T00940078
KFZY 151331Z AUTO 13004KT 1 3/4SM BR BKN005 BKN012 OVC023 09/07 A2991 RMK AO2 RAE1257 CIG 003V009 PRESFR P0000 T00940072
KFZY 151314Z AUTO VRB03KT 2SM BR BKN006 OVC011 09/07 A2993 RMK AO2 RAE1257 CIG 004V009 P0000 T00890072
KFZY 151254Z AUTO 00000KT 1 1/2SM -RA BR OVC009 09/07 A2993 RMK AO2 RAE03B45 CIG 005V013 SLP136 P0000 T00890067
KFZY 151248Z AUTO 14004KT 1 3/4SM -RA BR OVC011 09/07 A2993 RMK AO2 RAE03B45 P0000
KFZY 151235Z AUTO 15005KT 3SM BR OVC014 09/07 A2993 RMK AO2 RAE03 P0000 T00890067
KFZY 151154Z AUTO 14005KT 7SM -RA FEW020 BKN024 OVC045 08/06 A2994 RMK AO2 RAB49 SLP140 P0000 60000 T00830056 10083 20061 56017
KFZY 151133Z AUTO 14005KT 10SM SCT019 OVC045 08/06 A2995 RMK AO2 T00830056
KFZY 151124Z AUTO 14005KT 10SM BKN019 BKN045 OVC050 08/06 A2996 RMK AO2 T00780056
KFZY 151054Z AUTO VRB05KT 10SM BKN043 OVC080 08/05 A2996 RMK AO2 SLP147 T00780050
KFZY 150954Z AUTO 12003KT 10SM BKN100 07/04 A2999 RMK AO2 SLP156 T00720044
KFZY 150854Z AUTO 00000KT 10SM FEW120 07/04 A3002 RMK AO2 SLP167 T00720039 58023
KFZY 150754Z AUTO 14004KT 10SM CLR 07/03 A3005 RMK AO2 SLP176 T00670033
KFZY 150654Z AUTO VRB04KT 10SM CLR 06/03 A3007 RMK AO2 SLP183 T00610033
KFZY 150554Z AUTO VRB03KT 10SM CLR 07/03 A3009 RMK AO2 SLP190 T00670033 10078 20061 58014
KFZY 150454Z AUTO 13003KT 10SM CLR 07/03 A3010 RMK AO2 SLP195 T00670033 401500028
KFZY 150354Z AUTO 13003KT 10SM CLR 07/04 A3012 RMK AO2 SLP200 T00720039
KFZY 150254Z AUTO 14003KT 10SM CLR 08/04 A3013 RMK AO2 SLP205 T00780039 50002
KFZY 150154Z AUTO 12003KT 10SM CLR 08/04 A3013 RMK AO2 SLP206 T00780044
KFZY 150054Z AUTO 00000KT 10SM CLR 07/04 A3012 RMK AO2 SLP203 T00670039
KFZY 142354Z AUTO 00000KT 10SM CLR 08/05 A3012 RMK AO2 SLP203 T00780050 10150 20078 56002
KFZY 142254Z AUTO 00000KT 10SM CLR 09/05 A3012 RMK AO2 SLP203 T00890050
KFZY 142154Z AUTO 00000KT 10SM CLR 13/06 A3012 RMK AO2 SLP203 T01280056
KFZY 142054Z AUTO 19005KT 10SM CLR 14/04 A3013 RMK AO2 SLP205 T01440039 57009
KFZY 141954Z AUTO VRB04KT 10SM FEW041 SCT050 15/04 A3014 RMK AO2 SLP208 T01500044
KFZY 141854Z AUTO 17005KT 10SM BKN047 14/04 A3014 RMK AO2 SLP210 T01390039
KFZY 141754Z AUTO 20006KT 10SM BKN041 BKN050 13/04 A3016 RMK AO2 SLP213 T01330039 10139 20039 58016
KFZY 141654Z AUTO 20008KT 10SM FEW032 13/04 A3018 RMK AO2 SLP220 T01330044
KFZY 141554Z AUTO 18010KT 10SM CLR 13/04 A3019 RMK AO2 SLP225 T01280044
KFZY 141454Z AUTO 17009KT 10SM CLR 11/03 A3020 RMK AO2 SLP229 T01110033 53014
KFZY 141354Z AUTO 19005KT 10SM CLR 09/04 A3019 RMK AO2 SLP224 T00890039
KFZY 141254Z AUTO 00000KT 10SM FEW050 07/03 A3017 RMK AO2 SLP220 T00670033
KFZY 141154Z AUTO 00000KT 4SM BR FEW029 SCT038 04/02 A3016 RMK AO2 SLP216 70023 T00390022 10061 20028 53005
KFZY 141054Z AUTO 00000KT 9SM FEW027 BKN038 04/02 A3014 RMK AO2 SLP211 T00440022
KFZY 141050Z AUTO 00000KT 9SM SCT027 BKN038 04/02 A3014 RMK AO2
KFZY 141006Z AUTO 00000KT 6SM BR BKN029 BKN040 04/03 A3015 RMK AO2 T00440028
KFZY 140954Z AUTO 00000KT 7SM BKN031 BKN040 04/02 A3015 RMK AO2 SLP211 T00390022
KFZY 140854Z AUTO 19003KT 8SM BKN044 04/02 A3013 RMK AO2 SLP207 T00390022 53013
KFZY 140754Z AUTO 00000KT 10SM SCT038 04/02 A3011 RMK AO2 SLP201 T00440022
KFZY 140654Z AUTO 00000KT 10SM CLR 05/03 A3010 RMK AO2 SLP195 T00500028
KFZY 140554Z AUTO 00000KT 10SM BKN037 BKN055 06/03 A3009 RMK AO2 SLP192 T00610033 10083 20061 51019
KFZY 140454Z AUTO 00000KT 10SM SCT039 OVC060 07/04 A3008 RMK AO2 SLP189 T00720039 400890061
KFZY 140354Z AUTO 25005KT 10SM BKN038 OVC050 08/03 A3006 RMK AO2 SLP182 T00780028
KFZY 140254Z AUTO 24006KT 10SM FEW041 OVC055 08/03 A3003 RMK AO2 SLP173 T00830028 51013
KFZY 140154Z AUTO 22003KT 10SM BKN040 OVC050 08/03 A3003 RMK AO2 SLP170 T00780033
KFZY 140054Z AUTO 00000KT 10SM OVC036 08/03 A3001 RMK AO2 SLP165 T00780028
KFZY 132354Z AUTO 21004KT 10SM BKN042 OVC060 07/03 A3000 RMK AO2 RAB2256E08 SLP161 P0000 60003 T00720033 10089 20072 53017
KFZY 132254Z AUTO 24005KT 10SM BKN036 OVC046 07/03 A2998 RMK AO2 RAE39 SLP154 P0000 T00720033
KFZY 132154Z AUTO 26005KT 6SM -RA BKN035 OVC046 08/04 A2996 RMK AO2 SLP147 P0003 T00780039
KFZY 132054Z AUTO 23004KT 10SM -RA BKN038 OVC047 08/04 A2995 RMK AO2 RAE35B52 SLP143 P0000 60000 T00780044 53008
KFZY 131954Z AUTO 28006KT 9SM -RA BKN041 OVC050 08/03 A2993 RMK AO2 RAB16E27B46 SLP137 P0000 T00780033
KFZY 131854Z AUTO 29010KT 10SM FEW019 SCT039 OVC065 09/04 A2992 RMK AO2 RAE27 SLP135 P0000 T00890044
KFZY 131818Z AUTO 29010KT 10SM -RA FEW015 BKN037 OVC055 08/04 A2992 RMK AO2 P0000 T00780044
KFZY 131754Z AUTO 28009KT 6SM -RA FEW012 BKN027 OVC037 08/05 A2992 RMK AO2 SLP134 P0003 60020 T00780050 10089 20061 53013
KFZY 131741Z AUTO 27008KT 9SM -RA FEW023 BKN028 OVC035 08/04 A2992 RMK AO2 P0002 T00780044
KFZY 131654Z AUTO 28006KT 10SM -RA FEW020 BKN035 OVC043 09/05 A2990 RMK AO2 SLP127 P0004 T00890050
KFZY 131629Z AUTO VRB05KT 10SM -RA FEW009 BKN035 OVC045 08/05 A2989 RMK AO2 P0004 T00830050
KFZY 131621Z AUTO 31004KT 6SM -RA SCT010 SCT023 OVC037 08/05 A2989 RMK AO2 P0004 T00780050
KFZY 131610Z AUTO 28008KT 2 1/2SM RA BKN010 BKN018 OVC029 07/04 A2990 RMK AO2 P0003 T00720044
KFZY 131603Z AUTO 24004KT 6SM -RA SCT010 BKN018 OVC037 08/05 A2989 RMK AO2 P0000 T00780050
KFZY 131554Z AUTO VRB04KT 7SM -RA BKN012 BKN019 OVC027 08/05 A2988 RMK AO2 RAE13B31 SLP122 P0003 T00780050
KFZY 131540Z AUTO 00000KT 10SM -RA SCT013 BKN021 BKN029 08/04 A2988 RMK AO2 RAE13B31 P0002 T00830044
KFZY 131511Z AUTO 27005KT 10SM -RA SCT010 SCT023 BKN040 08/04 A2987 RMK AO2 P0002 T00780044
KFZY 131454Z AUTO 24007KT 4SM RA SCT010 BKN023 OVC031 07/04 A2988 RMK AO2 SLP120 P0005 60010 T00720044 51011
KFZY 131450Z AUTO 23005KT 6SM -RA SCT010 BKN025 OVC031 07/04 A2988 RMK AO2 P0004
KFZY 131440Z AUTO 24004KT 7SM -RA SCT025 OVC033 07/04 A2987 RMK AO2 P0003 T00720044
KFZY 131354Z AUTO 22005KT 6SM -RA FEW009 BKN025 OVC033 07/04 A2986 RMK AO2 SLP113 P0002 T00670039
KFZY 131336Z AUTO 23004KT 7SM -RA FEW008 BKN023 OVC029 07/04 A2986 RMK AO2 P0001 T00720039
KFZY 131315Z AUTO 23003KT 8SM -RA BKN023 BKN028 OVC047 07/04 A2985 RMK AO2 P0000 T00670039
KFZY 131254Z AUTO 21004KT 6SM -RA BR FEW023 BKN032 OVC045 07/04 A2985 RMK AO2 SLP110 P0003 T00670044
KFZY 131234Z AUTO 24004KT 5SM -RA BR OVC026 07/04 A2985 RMK AO2 P0002 T00670044
KFZY 131154Z AUTO 23005KT 4SM -RA BR FEW006 BKN035 OVC047 06/04 A2983 RMK AO2 SLP104 P0002 60017 70031 T00610039 10067 20061 53016
KFZY 131147Z AUTO 22006KT 5SM -RA BR FEW006 OVC029 06/04 A2983 RMK AO2 P0001 T00610039